Flight Track Log - Related Links

Times and Time Zones

All times are in EDT time to prevent confusion due to time zone crossing. See the DAL1981 flight status page for this flight to view local times or setup timezone preferences in your user account.

Time Position Orientation Groundspeed Altitude Reporting Facility
EDT Latitude Longitude Course Direction KTS MPH feet Rate Location/Type
Wed 03:54:14 PM 38.6667 -121.5667 78° East 158 182 1,500  Level Northern TRACON
Wed 03:55:14 PM 38.6500 -121.5000 108° East 240 276 2,400 1,950 Climbing Northern TRACON
Wed 03:56:00 PM 38.4997 -121.2354 80° East  Level FlightAware
Wed 03:56:14 PM 38.6500 -121.4000 90° East 255 293 5,400  Level Northern TRACON
Wed 03:57:00 PM 38.5391 -121.0716 76° East  Level FlightAware
Wed 03:57:14 PM 38.6500 -121.3000 90° East 301 346 7,700  Level Northern TRACON
Wed 03:58:00 PM 38.5689 -120.9040 78° East  Level FlightAware
Wed 03:58:14 PM 38.6667 -121.2000 78° East 298 343 10,200  Level Northern TRACON
Wed 03:59:00 PM 38.5968 -120.7358 78° East  Level FlightAware
Wed 03:59:42 PM 38.6708 -121.0447 88° East 327 376 12,100  Level Oakland Center
Wed 04:00:44 PM 38.6789 -120.9069 86° East 376 433 13,500 1,415 Climbing Oakland Center
Wed 04:01:45 PM 38.6883 -120.7586 85° East 411 473 15,000 1,721 Climbing Oakland Center
Wed 04:02:46 PM 38.6983 -120.5767 86° East 428 493 17,000 1,659 Climbing Oakland Center
Wed 04:03:48 PM 38.7064 -120.4206 86° East 437 503 18,400 1,315 Climbing Oakland Center
Wed 04:05:00 PM 38.7146 -120.2105 76° East  Level FlightAware
Wed 04:05:44 PM 38.7311 -120.1250 76° East 458 527 20,900  Level Salt Center
Wed 04:06:46 PM 38.7653 -119.9639 75° East 469 540 22,400 1,355 Climbing Salt Center
Wed 04:07:48 PM 38.8033 -119.7692 76° East 471 542 23,700 1,078 Climbing Salt Center
Wed 04:08:54 PM 38.8944 -119.6453 47° Northeast 490 564 24,700 898 Climbing Oakland Center
Wed 04:09:55 PM 39.0072 -119.5472 34° Northeast 490 564 25,600 878 Climbing Oakland Center
Wed 04:10:57 PM 39.1236 -119.4483 33° Northeast 498 573 26,500 829 Climbing Oakland Center
Wed 04:11:58 PM 39.2408 -119.3475 34° Northeast 504 580 27,300 836 Climbing Oakland Center
Wed 04:12:59 PM 39.3592 -119.2464 33° Northeast 506 582 28,200 934 Climbing Oakland Center
Wed 04:14:00 PM 39.4786 -119.1433 34° Northeast 510 587 29,200 976 Climbing Oakland Center
Wed 04:15:02 PM 39.5986 -119.0403 33° Northeast 511 588 30,200 829 Climbing Oakland Center
Wed 04:16:03 PM 39.7164 -118.9375 34° Northeast 505 581 30,900 689 Climbing Oakland Center
Wed 04:17:04 PM 39.8336 -118.8331 34° Northeast 506 582 31,600 683 Climbing Oakland Center
Wed 04:18:06 PM 39.9731 -118.7106 34° Northeast 501 577 32,300 634 Climbing Oakland Center
Wed 04:19:07 PM 40.0836 -118.5969 38° Northeast 505 581 32,900 590 Climbing Oakland Center
Wed 04:20:08 PM 40.1628 -118.4397 57° Northeast 516 594 33,500 667 Climbing Oakland Center
Wed 04:21:13 PM 40.2156 -118.2528 70° East 513 590 34,300 732 Climbing Salt Center
Wed 04:22:11 PM 40.2589 -118.0922 70° East 505 581 35,000 339 Climbing Oakland Center
Wed 04:23:17 PM 40.3128 -117.8925 70° East 507 583 35,000  Level Salt Center
Wed 04:24:14 PM 40.3525 -117.7564 69° East 503 579 35,000  Level Oakland Center
Wed 04:25:15 PM 40.4119 -117.5653 68° East 506 582 35,000  Level Oakland Center
Wed 04:26:16 PM 40.4614 -117.3997 69° East 507 583 35,000  Level Oakland Center
Wed 04:27:18 PM 40.5211 -117.2061 68° East 508 585 35,000  Level Oakland Center
Wed 04:28:19 PM 40.5711 -117.0375 69° East 510 587 35,000  Level Oakland Center
Wed 04:29:21 PM 40.6208 -116.8683 69° East 508 585 35,000  Level Oakland Center
Wed 04:30:22 PM 40.6761 -116.6742 69° East 502 578 35,000  Level Oakland Center
Wed 04:31:33 PM 40.7333 -116.4794 69° East 505 581 35,000  Level Salt Center
Wed 04:32:35 PM 40.7819 -116.3131 69° East 507 583 35,000  Level Salt Center
Wed 04:33:37 PM 40.8369 -116.1181 69° East 506 582 35,000  Level Salt Center
Wed 04:34:39 PM 40.8842 -115.9494 70° East 510 587 35,000  Level Salt Center
Wed 04:35:41 PM 40.9392 -115.7564 69° East 505 581 35,000  Level Salt Center
Wed 04:36:42 PM 40.9858 -115.5889 70° East 505 581 35,000  Level Salt Center
Wed 04:37:44 PM 41.0389 -115.3933 70° East 506 582 35,000  Level Salt Center
Wed 04:38:46 PM 41.0867 -115.2269 69° East 505 581 35,000  Level Salt Center
Wed 04:39:48 PM 41.1328 -115.0603 70° East 504 580 35,000  Level Salt Center
Wed 04:40:50 PM 41.1847 -114.8636 71° East 505 581 35,000  Level Salt Center
Wed 04:41:52 PM 41.2297 -114.6994 70° East 505 581 35,000  Level Salt Center
Wed 04:42:54 PM 41.2764 -114.5239 70° East 505 581 35,000  Level Salt Center
Wed 04:43:56 PM 41.3336 -114.3139 70° East 505 581 35,000  Level Salt Center
Wed 04:44:57 PM 41.3797 -114.1372 71° East 505 581 35,000  Level Salt Center
Wed 04:45:59 PM 41.4253 -113.9625 71° East 502 578 35,000  Level Salt Center
Wed 04:47:01 PM 41.4717 -113.7875 70° East 502 578 35,000  Level Salt Center
Wed 04:48:03 PM 41.5169 -113.6125 71° East 500 575 35,000  Level Salt Center
Wed 04:49:05 PM 41.5614 -113.4378 71° East 498 573 35,000  Level Salt Center
Wed 04:50:07 PM 41.6150 -113.2272 71° East 499 574 35,000 48 Level Salt Center
Wed 04:51:09 PM 41.6603 -113.0506 71° East 502 578 35,100  Climbing Salt Center
Wed 04:52:11 PM 41.7042 -112.8736 72° East 500 575 35,000 -49 Descending Salt Center
Wed 04:53:12 PM 41.7486 -112.6978 71° East 498 573 35,000  Level Salt Center
Wed 04:54:14 PM 41.7897 -112.5233 72° East 494 568 35,000  Level Salt Center
Wed 04:55:16 PM 41.8350 -112.3464 71° East 497 572 35,000  Level Salt Center
Wed 04:56:18 PM 41.8772 -112.1689 72° East 499 574 35,000  Level Salt Center
Wed 04:57:20 PM 41.9217 -111.9911 71° East 500 575 35,000  Level Salt Center
Wed 04:58:22 PM 41.9717 -111.7814 72° East 493 567 35,000  Level Salt Center
Wed 04:59:24 PM 42.0136 -111.6036 72° East 497 572 35,000  Level Salt Center
Wed 05:00:26 PM 42.0553 -111.4281 72° East 494 568 35,000  Level Salt Center
Wed 05:01:28 PM 42.0969 -111.2519 72° East 494 568 35,000  Level Salt Center
Wed 05:02:30 PM 42.1375 -111.0733 73° East 498 573 35,000  Level Salt Center
Wed 05:03:32 PM 42.1867 -110.8678 72° East 496 571 35,000  Level Salt Center
Wed 05:04:34 PM 42.2236 -110.6986 74° East 495 570 35,000  Level Salt Center
Wed 05:05:36 PM 42.2633 -110.5286 72° East 495 570 35,000  Level Salt Center
Wed 05:06:38 PM 42.3075 -110.3322 73° East 491 565 35,000 -48 Level Salt Center
Wed 05:07:40 PM 42.3444 -110.1628 74° East 490 564 34,900  Descending Salt Center
Wed 05:08:42 PM 42.3886 -109.9642 73° East 492 566 35,000 48 Climbing Salt Center
Wed 05:09:44 PM 42.4272 -109.7931 73° East 495 570 35,000  Level Salt Center
Wed 05:10:46 PM 42.4706 -109.5922 74° East 496 571 35,000  Level Salt Center
Wed 05:11:49 PM 42.5081 -109.4208 73° East 496 571 35,000  Level Salt Center
Wed 05:12:51 PM 42.5517 -109.2200 74° East 497 572 35,000  Level Salt Center
Wed 05:13:53 PM 42.5878 -109.0456 74° East 499 574 35,000  Level Salt Center
Wed 05:14:55 PM 42.6297 -108.8453 74° East 496 571 35,000  Level Salt Center
Wed 05:15:57 PM 42.6653 -108.6736 74° East 493 567 35,000  Level Salt Center
Wed 05:16:59 PM 42.7008 -108.5017 74° East 494 568 35,000  Level Salt Center
Wed 05:18:01 PM 42.7425 -108.2992 74° East 498 573 35,000  Level Salt Center
Wed 05:19:03 PM 42.7781 -108.1261 74° East 498 573 35,000  Level Salt Center
Wed 05:20:05 PM 42.8186 -107.9222 75° East 499 574 35,000  Level Salt Center
Wed 05:21:07 PM 42.8533 -107.7483 75° East 497 572 35,000  Level Salt Center
Wed 05:22:09 PM 42.8928 -107.5467 75° East 495 570 35,000  Level Salt Center
Wed 05:23:11 PM 42.9281 -107.3728 74° East 496 571 35,000  Level Salt Center
Wed 05:24:05 PM 42.9583 -107.2014 76° East 496 571 35,000  Level Denver Center
Wed 05:25:06 PM 42.9872 -107.0558 75° East 497 572 35,000  Level Denver Center
Wed 05:26:09 PM 43.0319 -106.8206 75° East 501 577 35,000  Level Denver Center
Wed 05:27:11 PM 43.0656 -106.6444 75° East 502 578 35,000  Level Denver Center
Wed 05:28:13 PM 43.1019 -106.4372 76° East 501 577 35,000  Level Denver Center
Wed 05:29:15 PM 43.1361 -106.2606 75° East 500 575 35,000  Level Denver Center
Wed 05:30:17 PM 43.1736 -106.0553 76° East 500 575 35,000  Level Denver Center
Wed 05:31:19 PM 43.2056 -105.8781 76° East 500 575 35,000  Level Denver Center
Wed 05:32:21 PM 43.2419 -105.6706 76° East 501 577 35,000  Level Denver Center
Wed 05:33:23 PM 43.2733 -105.4928 76° East 500 575 35,000  Level Denver Center
Wed 05:34:25 PM 43.3097 -105.2853 76° East 499 574 35,000  Level Denver Center
Wed 05:35:27 PM 43.3406 -105.1083 76° East 498 573 35,000  Level Denver Center
Wed 05:36:29 PM 43.3761 -104.8986 77° East 500 575 35,000  Level Denver Center
Wed 05:37:31 PM 43.4061 -104.7175 77° East 503 579 35,000  Level Denver Center
Wed 05:38:33 PM 43.4361 -104.5372 77° East 504 580 35,000  Level Denver Center
Wed 05:39:36 PM 43.4714 -104.3267 77° East 504 580 35,000  Level Denver Center
Wed 05:40:38 PM 43.4997 -104.1469 78° East 503 579 35,000  Level Denver Center
Wed 05:41:40 PM 43.5350 -103.9392 77° East 500 575 35,000  Level Denver Center
Wed 05:42:42 PM 43.5642 -103.7603 77° East 500 575 35,000  Level Denver Center
Wed 05:43:44 PM 43.5967 -103.5478 78° East 505 581 35,000  Level Denver Center
Wed 05:44:46 PM 43.6258 -103.3658 77° East 507 583 35,000  Level Denver Center
Wed 05:45:48 PM 43.6578 -103.1547 78° East 505 581 35,000  Level Denver Center
Wed 05:46:50 PM 43.6847 -102.9725 78° East 506 582 35,000  Level Denver Center
Wed 05:47:52 PM 43.7161 -102.7597 78° East 506 582 35,000  Level Denver Center
Wed 05:48:54 PM 43.7408 -102.5836 79° East 495 570 35,000  Level Denver Center
Wed 05:49:56 PM 43.7683 -102.4094 78° East 488 562 35,000  Level Denver Center
Wed 05:50:58 PM 43.7981 -102.2011 79° East 493 567 35,000  Level Denver Center
Wed 05:52:00 PM 43.8236 -102.0172 79° East 495 570 35,000  Level Denver Center
Wed 05:53:02 PM 43.8494 -101.8297 79° East 497 572 35,000  Level Denver Center
Wed 05:54:04 PM 43.8767 -101.6417 79° East 499 574 35,000  Level Denver Center
Wed 05:55:06 PM 43.9075 -101.4081 80° East 513 590 35,000  Level Denver Center
Wed 05:56:08 PM 43.9339 -101.2139 79° East 515 593 35,000  Level Denver Center
Wed 05:57:10 PM 43.9606 -101.0228 79° East 510 587 35,000  Level Denver Center
Wed 05:58:12 PM 43.9858 -100.8289 80° East 512 589 35,000  Level Denver Center
Wed 05:59:18 PM 44.0164 -100.5989 79° East 511 588 35,000  Level Minneapolis Center
Wed 06:00:20 PM 44.0394 -100.4064 80° East 509 586 35,000  Level Minneapolis Center
Wed 06:01:22 PM 44.0642 -100.2153 80° East 506 582 35,000  Level Minneapolis Center
Wed 06:02:24 PM 44.0883 -100.0200 80° East 513 590 35,000  Level Minneapolis Center
Wed 06:03:26 PM 44.1125 -99.8242 80° East 515 593 35,000  Level Minneapolis Center
Wed 06:04:28 PM 44.1364 -99.6289 80° East 516 594 35,000  Level Minneapolis Center
Wed 06:05:30 PM 44.1642 -99.3969 80° East 512 589 35,000  Level Minneapolis Center
Wed 06:06:32 PM 44.1864 -99.2033 81° East 510 587 35,000  Level Minneapolis Center
Wed 06:07:34 PM 44.2106 -99.0069 80° East 515 593 35,000  Level Minneapolis Center
Wed 06:08:36 PM 44.2333 -98.8108 81° East 515 593 35,000  Level Minneapolis Center
Wed 06:09:38 PM 44.2533 -98.6181 82° East 508 585 35,000  Level Minneapolis Center
Wed 06:10:40 PM 44.2797 -98.3847 81° East 510 587 35,000  Level Minneapolis Center
Wed 06:11:42 PM 44.2969 -98.2231 81° East 506 582 35,000  Level Minneapolis Center
Wed 06:12:43 PM 44.3217 -97.9919 81° East 504 580 35,000  Level Minneapolis Center
Wed 06:13:45 PM 44.3419 -97.7967 82° East 507 583 35,000  Level Minneapolis Center
Wed 06:14:47 PM 44.3611 -97.6022 82° East 506 582 35,000  Level Minneapolis Center
Wed 06:15:49 PM 44.3806 -97.4078 82° East 506 582 35,000  Level Minneapolis Center
Wed 06:16:51 PM 44.4000 -97.2139 82° East 505 581 35,000  Level Minneapolis Center
Wed 06:17:53 PM 44.4186 -97.0175 82° East 508 585 35,000 -581 Level Minneapolis Center
Wed 06:18:55 PM 44.4419 -96.7847 82° East 505 581 33,800 -968 Descending Minneapolis Center
Wed 06:19:57 PM 44.4600 -96.5872 83° East 508 585 33,000 -387 Descending Minneapolis Center
Wed 06:20:59 PM 44.4783 -96.3867 83° East 515 593 33,000  Level Minneapolis Center
Wed 06:22:01 PM 44.4981 -96.1856 82° East 515 593 33,000  Level Minneapolis Center
Wed 06:23:03 PM 44.5153 -95.9847 83° East 514 592 33,000 -242 Level Minneapolis Center
Wed 06:24:05 PM 44.5322 -95.7869 83° East 510 587 32,500 -1,694 Descending Minneapolis Center
Wed 06:25:07 PM 44.5483 -95.5864 83° East 515 593 29,500 -2,613 Descending Minneapolis Center
Wed 06:26:09 PM 44.5644 -95.3883 83° East 514 592 27,100 -2,516 Descending Minneapolis Center
Wed 06:27:11 PM 44.5817 -95.1647 84° East 484 557 24,300 -2,419 Descending Minneapolis Center
Wed 06:28:13 PM 44.5967 -94.9881 83° East 461 531 22,100 -2,129 Descending Minneapolis Center
Wed 06:29:15 PM 44.6117 -94.8178 83° East 447 514 19,900 -2,129 Descending Minneapolis Center
Wed 06:30:17 PM 44.6231 -94.6522 84° East 433 498 17,700 -2,081 Descending Minneapolis Center
Wed 06:31:19 PM 44.6353 -94.4775 84° East 412 474 15,600 -2,032 Descending Minneapolis Center
Wed 06:32:21 PM 44.6533 -94.3250 80° East 395 455 13,500 -1,984 Descending Minneapolis Center
Wed 06:33:23 PM 44.6872 -94.1847 71° East 378 435 11,500 -1,161 Descending Minneapolis Center
Wed 06:34:25 PM 44.7178 -94.0458 73° East 373 429 11,100 -194 Descending Minneapolis Center
Wed 06:35:27 PM 44.7483 -93.9089 73° East 368 423 11,100 -48 Level Minneapolis Center
Wed 06:36:30 PM 44.7856 -93.7428 72° East 370 426 11,000 -288 Descending Minneapolis Center
Wed 06:37:32 PM 44.8150 -93.6086 73° East 358 412 10,500 -823 Descending Minneapolis Center
Wed 06:38:34 PM 44.8411 -93.4897 73° East 319 367 9,300 -1,161 Descending Minneapolis Center
Wed 06:39:36 PM 44.8642 -93.3758 74° East 302 348 8,100 -629 Descending Minneapolis Center
Wed 06:40:38 PM 44.8114 -93.3103 139° Southeast 272 313 8,000 -48 Descending Minneapolis Center
Wed 06:41:40 PM 44.7269 -93.2872 169° South 267 307 8,000 -145 Level Minneapolis Center
Wed 06:42:42 PM 44.6583 -93.2694 170° South 262 302 7,700 -581 Descending Minneapolis Center
Wed 06:43:44 PM 44.6061 -93.2250 149° Southeast 237 273 6,800 -968 Descending Minneapolis Center
Wed 06:44:46 PM 44.6414 -93.1836 40° Northeast 194 223 5,700 -1,065 Descending Minneapolis Center

Login

Don't have an account? Register now (free) for customized features, flight alerts, and more!